Londonderry, VT (05148)

1:21 PM EDT on April 28, 2017 (GMT -0400)
"The Oak" Winhall Hollow Rd, South Londonderry, VT | | Change Station

Elev 1358 ft 43.21 °N, 72.84 °W | Updated 19 seconds ago

Partly Cloudy
Partly Cloudy
70.5 °F
Feels Like 77 °F
N
2.5
Wind Variable Wind from SSW
Gusts 4.9 mph

Today
High -- | Low -- °F
--% Chance of Precip.
Yesterday
High -- | Low -- °F
Precip. -- in
Pressure 29.95 in
Visibility 10.0 miles
Clouds Scattered Clouds 3700 ft
Scattered Clouds 4800 ft
Mostly Cloudy 6000 ft
Heat Index 77 °F
Dew Point 51 °F
Humidity 50%
Rainfall 0.00 in
Snow Depth Not available.
5:48 AM 7:49 PM
Waxing Crescent, 7% visible
METAR KVSF 281654Z AUTO 24010KT 200V260 10SM SCT037 SCT048 BKN060 23/11 A2995 RMK AO2 SLP142 T02280106
Pressure 29.95 in
Visibility 10.0 miles
Clouds Scattered Clouds 3700 ft
Scattered Clouds 4800 ft
Mostly Cloudy 6000 ft
Heat Index 77 °F
Dew Point 51 °F
Humidity 50%
Rainfall 0.00 in
Snow Depth Not available.
5:48 AM 7:49 PM
Waxing Crescent, 7% visible
METAR KVSF 281654Z AUTO 24010KT 200V260 10SM SCT037 SCT048 BKN060 23/11 A2995 RMK AO2 SLP142 T02280106

Get Severe Weather Alerts

Thanks for signing up!

Be on the lookout for a verification email in your inbox.

You'll start receiving the daily forecast at 8 AM.

×

10-Day Weather Forecast

Almanac

Astronomy

Apr. 28, 2017 Rise Set
Actual Time
Civil Twilight
Nautical Twilight
Astronomical Twilight
Moon
Length of Visible Light
Length of Day
Tomorrow will be .
, % of the Moon is Illuminated

Today's Extremes

State Highs State Lows

Community

WunderPhotos

WunderBlog® & News

Nearby

Air Quality

  Air Quality AQ Index Pollutant
Not available.

Snow Depth

Station Depth Elevation

Earthquake Activity

City Distance Mag. Time & Date
Minimum magnitude displayed is 2.5.

Coastal Water Temperatures

Place Temperature

Stations

Nearby Weather Stations

Station Location Temp. Windchill Dew Point Humidity Wind Precip. Elev Updated Type
                   

Watches & Warnings

There are currently no watches in effect.